createdAt,value
2018-12-05T00:00:11.137Z,0.00
2018-12-05T00:01:11.104Z,0.00
2018-12-05T00:02:11.064Z,0.00
2018-12-05T00:03:11.037Z,0.00
2018-12-05T00:04:11.006Z,0.00
2018-12-05T00:05:10.985Z,0.00
2018-12-05T00:06:10.950Z,0.00
2018-12-05T00:07:10.925Z,0.00
2018-12-05T00:08:11.097Z,0.00
2018-12-05T00:09:10.865Z,0.00
2018-12-05T00:10:10.800Z,0.00
2018-12-05T00:12:10.752Z,0.00
2018-12-05T00:13:10.744Z,0.00
2018-12-05T00:14:10.713Z,0.00
2018-12-05T00:15:10.649Z,0.00
2018-12-05T00:16:10.974Z,0.00
2018-12-05T00:17:10.624Z,0.00
2018-12-05T00:18:10.572Z,0.00
2018-12-05T00:19:10.535Z,0.00
2018-12-05T00:20:10.513Z,0.00
2018-12-05T00:21:10.457Z,0.00
2018-12-05T00:22:10.772Z,0.00
2018-12-05T00:23:10.392Z,0.00
2018-12-05T00:24:10.355Z,0.00
2018-12-05T00:25:10.340Z,0.00
2018-12-05T00:26:10.314Z,0.00
2018-12-05T00:27:10.358Z,0.00
2018-12-05T00:28:10.518Z,0.00
2018-12-05T00:29:10.200Z,0.00
2018-12-05T00:30:10.225Z,0.00
2018-12-05T00:31:10.138Z,0.00
2018-12-05T00:32:10.119Z,0.00
2018-12-05T00:33:10.080Z,0.00
2018-12-05T00:34:10.102Z,0.00
2018-12-05T00:35:10.124Z,0.00
2018-12-05T00:36:09.984Z,0.00
2018-12-05T00:37:09.959Z,0.00
2018-12-05T00:38:09.913Z,0.00
2018-12-05T00:39:09.885Z,0.00
2018-12-05T00:40:09.841Z,0.00
2018-12-05T00:41:09.815Z,0.00
2018-12-05T00:42:09.982Z,0.00
2018-12-05T00:43:09.753Z,0.00
2018-12-05T00:44:09.727Z,0.00
2018-12-05T00:45:09.700Z,0.00
2018-12-05T00:46:09.731Z,0.00
2018-12-05T00:47:09.635Z,0.00
2018-12-05T00:48:09.606Z,0.00
2018-12-05T00:49:09.578Z,0.00
2018-12-05T00:50:09.870Z,0.00
2018-12-05T00:51:09.509Z,0.00
2018-12-05T00:52:09.467Z,0.00
2018-12-05T00:53:09.441Z,0.00
2018-12-05T00:54:09.419Z,0.00
2018-12-05T00:55:09.374Z,0.00
2018-12-05T00:56:09.691Z,0.00
2018-12-05T00:57:09.306Z,0.00
2018-12-05T00:58:09.276Z,0.00
2018-12-05T00:59:09.264Z,0.00
2018-12-05T01:00:09.254Z,0.00
2018-12-05T01:01:09.170Z,0.00
2018-12-05T01:02:09.639Z,0.00
2018-12-05T01:03:09.118Z,0.00
2018-12-05T01:04:09.099Z,0.00
2018-12-05T01:05:09.052Z,0.00
2018-12-05T01:06:09.005Z,0.00
2018-12-05T01:07:09.022Z,0.00
2018-12-05T01:08:09.006Z,0.00
2018-12-05T01:09:08.906Z,0.00
2018-12-05T01:10:08.894Z,0.00
2018-12-05T01:11:08.849Z,0.00
2018-12-05T01:12:08.838Z,0.00
2018-12-05T01:13:08.786Z,0.00
2018-12-05T01:14:08.774Z,0.00
2018-12-05T01:15:08.721Z,0.00
2018-12-05T01:16:08.687Z,0.00
2018-12-05T01:17:08.680Z,0.00
2018-12-05T01:18:08.632Z,0.00
2018-12-05T01:19:08.588Z,0.00
2018-12-05T01:20:08.587Z,0.00
2018-12-05T01:21:08.523Z,0.00
2018-12-05T01:22:08.511Z,0.00
2018-12-05T01:23:08.668Z,0.00
2018-12-05T01:24:08.441Z,0.00
2018-12-05T01:25:08.400Z,0.00
2018-12-05T01:26:08.385Z,0.00
2018-12-05T01:27:08.353Z,0.00
2018-12-05T01:28:08.321Z,0.00
2018-12-05T01:29:08.443Z,0.00
2018-12-05T01:30:08.233Z,0.00
2018-12-05T01:31:08.215Z,0.00
2018-12-05T01:32:08.175Z,0.00
2018-12-05T01:33:08.156Z,0.00
2018-12-05T01:34:08.131Z,0.00
2018-12-05T01:35:08.088Z,0.00
2018-12-05T01:36:08.037Z,0.00
2018-12-05T01:37:08.010Z,0.00
2018-12-05T01:38:08.035Z,0.00
2018-12-05T01:39:07.997Z,0.00
2018-12-05T01:40:08.022Z,0.00
2018-12-05T01:41:07.913Z,0.00
2018-12-05T01:42:07.852Z,0.00
2018-12-05T01:43:07.842Z,0.00
2018-12-05T01:44:07.803Z,0.00
2018-12-05T01:45:07.769Z,0.00
2018-12-05T01:46:07.731Z,0.00
2018-12-05T01:47:07.683Z,0.00
2018-12-05T01:48:07.667Z,0.00
2018-12-05T01:49:07.646Z,0.00
2018-12-05T01:50:07.591Z,0.00
2018-12-05T01:51:07.577Z,0.00
2018-12-05T01:52:07.547Z,0.00
2018-12-05T01:53:07.502Z,0.00
2018-12-05T01:54:07.480Z,0.00
2018-12-05T01:55:07.434Z,0.00
2018-12-05T01:56:07.406Z,0.00
2018-12-05T01:57:07.378Z,0.00
2018-12-05T01:58:07.351Z,0.00
2018-12-05T01:59:07.340Z,0.00
2018-12-05T02:01:07.247Z,0.00
2018-12-05T02:02:07.225Z,0.00
2018-12-05T02:03:07.176Z,0.00
2018-12-05T02:04:07.190Z,0.00
2018-12-05T02:05:07.115Z,0.00
2018-12-05T02:06:07.093Z,0.00
2018-12-05T02:07:07.057Z,0.00
2018-12-05T02:08:07.020Z,0.00
2018-12-05T02:09:06.997Z,0.00
2018-12-05T02:10:07.034Z,0.00
2018-12-05T02:11:06.923Z,0.00
2018-12-05T02:12:06.887Z,0.00
2018-12-05T02:13:06.917Z,0.00
2018-12-05T02:14:06.822Z,0.00
2018-12-05T02:15:06.801Z,0.00
2018-12-05T02:16:06.766Z,0.00
2018-12-05T02:17:06.765Z,0.00
2018-12-05T02:18:06.733Z,0.00
2018-12-05T02:19:06.706Z,0.00
2018-12-05T02:20:06.624Z,0.00
2018-12-05T02:21:06.632Z,0.00
2018-12-05T02:22:06.573Z,0.00
2018-12-05T02:23:06.541Z,0.00
2018-12-05T02:24:06.509Z,0.00
2018-12-05T02:25:06.473Z,0.00
2018-12-05T02:26:06.433Z,0.00
2018-12-05T02:27:06.426Z,0.00
2018-12-05T02:28:06.374Z,0.00
2018-12-05T02:29:06.344Z,0.00
2018-12-05T02:30:06.315Z,0.00
2018-12-05T02:31:06.284Z,0.00
2018-12-05T02:32:06.316Z,0.00
2018-12-05T02:33:06.209Z,0.00
2018-12-05T02:34:06.173Z,0.00
2018-12-05T02:35:06.152Z,0.00
2018-12-05T02:36:06.133Z,0.00
2018-12-05T02:37:06.087Z,0.00
2018-12-05T02:38:06.072Z,0.00
2018-12-05T02:39:06.041Z,0.00
2018-12-05T02:40:05.992Z,0.00
2018-12-05T02:41:06.008Z,0.00
2018-12-05T02:42:05.927Z,0.00
2018-12-05T02:43:05.888Z,0.00
2018-12-05T02:44:05.903Z,0.00
2018-12-05T02:45:05.830Z,0.00
2018-12-05T02:46:05.803Z,0.00
2018-12-05T02:47:05.785Z,0.00
2018-12-05T02:48:05.733Z,0.00
2018-12-05T02:49:05.698Z,0.00
2018-12-05T02:50:05.663Z,0.00
2018-12-05T02:51:05.631Z,0.00
2018-12-05T02:52:05.657Z,0.00
2018-12-05T02:53:05.566Z,0.00
2018-12-05T02:54:05.543Z,0.00
2018-12-05T02:55:05.510Z,0.00
2018-12-05T02:56:05.469Z,0.00
2018-12-05T02:57:05.643Z,0.00
2018-12-05T02:58:05.412Z,0.00
2018-12-05T02:59:05.369Z,0.00
2018-12-05T03:00:05.337Z,0.00
2018-12-05T03:01:05.310Z,0.00
2018-12-05T03:02:05.281Z,0.00
2018-12-05T03:03:05.236Z,0.00
2018-12-05T03:04:05.212Z,0.00
2018-12-05T03:05:05.211Z,0.00
2018-12-05T03:06:05.162Z,0.00
2018-12-05T03:07:05.121Z,0.00
2018-12-05T03:08:05.105Z,0.00
2018-12-05T03:09:05.050Z,0.00
2018-12-05T03:10:05.040Z,0.00
2018-12-05T03:11:05.013Z,0.00
2018-12-05T03:12:04.973Z,0.00
2018-12-05T03:14:04.889Z,0.00
2018-12-05T03:15:04.859Z,0.00
2018-12-05T03:16:04.821Z,0.00
2018-12-05T03:17:04.804Z,0.00
2018-12-05T03:18:04.760Z,0.00
2018-12-05T03:19:04.727Z,0.00
2018-12-05T03:20:05.467Z,0.00
2018-12-05T03:21:04.667Z,0.00
2018-12-05T03:22:04.626Z,0.00
2018-12-05T03:23:04.594Z,0.00
2018-12-05T03:24:04.777Z,0.00
2018-12-05T03:25:04.539Z,0.00
2018-12-05T03:26:04.494Z,0.00
2018-12-05T03:27:04.487Z,0.00
2018-12-05T03:28:04.428Z,0.00
2018-12-05T03:29:04.479Z,0.00
2018-12-05T03:30:04.376Z,0.00
2018-12-05T03:31:04.343Z,0.00
2018-12-05T03:32:04.306Z,0.00
2018-12-05T03:33:04.272Z,0.00
2018-12-05T03:34:04.261Z,0.00
2018-12-05T03:35:04.215Z,0.00
2018-12-05T03:36:04.176Z,0.00
2018-12-05T03:37:04.153Z,0.00
2018-12-05T03:38:04.111Z,0.00
2018-12-05T03:39:04.080Z,0.00
2018-12-05T03:40:04.067Z,0.00
2018-12-05T03:41:04.039Z,0.00
2018-12-05T03:42:03.980Z,0.00
2018-12-05T03:43:03.960Z,0.00
2018-12-05T03:44:03.920Z,0.00
2018-12-05T03:45:03.908Z,0.00
2018-12-05T03:46:03.848Z,0.00
2018-12-05T03:47:03.813Z,0.00
2018-12-05T03:48:03.797Z,0.00
2018-12-05T03:49:03.757Z,0.00
2018-12-05T03:50:03.715Z,0.00
2018-12-05T03:51:03.689Z,0.00
2018-12-05T03:52:03.686Z,0.00
2018-12-05T03:53:03.636Z,0.00
2018-12-05T03:54:03.591Z,0.00
2018-12-05T03:55:03.602Z,0.00
2018-12-05T03:56:03.973Z,0.00
2018-12-05T03:57:03.499Z,0.00
2018-12-05T03:58:03.457Z,0.00
2018-12-05T03:59:03.461Z,0.00
2018-12-05T04:00:03.390Z,0.00
2018-12-05T04:01:03.389Z,0.00
2018-12-05T04:02:03.328Z,0.00
2018-12-05T04:03:03.304Z,0.00
2018-12-05T04:04:03.291Z,0.00
2018-12-05T04:05:03.236Z,0.00
2018-12-05T04:06:03.203Z,0.00
2018-12-05T04:07:03.186Z,0.00
2018-12-05T04:08:03.149Z,0.00
2018-12-05T04:09:03.117Z,0.00
2018-12-05T04:10:03.074Z,0.00
2018-12-05T04:11:03.050Z,0.00
2018-12-05T04:12:03.007Z,0.00
2018-12-05T04:13:02.988Z,0.00
2018-12-05T04:14:02.955Z,0.00
2018-12-05T04:15:02.918Z,0.00
2018-12-05T04:16:02.883Z,0.00
2018-12-05T04:17:02.843Z,0.00
2018-12-05T04:18:02.947Z,0.00
2018-12-05T04:19:02.778Z,0.00
2018-12-05T04:20:02.753Z,0.00
2018-12-05T04:21:02.716Z,0.00
2018-12-05T04:22:02.695Z,0.00
2018-12-05T04:23:02.684Z,0.00
2018-12-05T04:24:02.640Z,0.00
2018-12-05T04:25:02.586Z,0.00
2018-12-05T04:26:02.552Z,0.00
2018-12-05T04:27:02.533Z,0.00
2018-12-05T04:28:02.645Z,0.00
2018-12-05T04:29:02.456Z,0.00
2018-12-05T04:30:02.422Z,0.00
2018-12-05T04:31:02.412Z,0.00
2018-12-05T04:32:02.445Z,0.00
2018-12-05T04:33:02.333Z,0.00
2018-12-05T04:34:02.299Z,0.00
2018-12-05T04:35:02.274Z,0.00
2018-12-05T04:36:02.229Z,0.00
2018-12-05T04:37:02.216Z,0.00
2018-12-05T04:38:02.232Z,0.00
2018-12-05T04:39:02.142Z,0.00
2018-12-05T04:40:02.108Z,0.00
2018-12-05T04:41:02.079Z,0.00
2018-12-05T04:42:02.042Z,0.00
2018-12-05T04:43:02.004Z,0.00
2018-12-05T04:44:02.154Z,0.00
2018-12-05T04:45:01.952Z,0.00
2018-12-05T04:46:01.905Z,0.00
2018-12-05T04:47:01.875Z,0.00
2018-12-05T04:48:01.846Z,0.00
2018-12-05T04:49:01.812Z,0.00
2018-12-05T04:50:01.783Z,0.00
2018-12-05T04:51:01.746Z,0.00
2018-12-05T04:52:01.716Z,0.00
2018-12-05T04:53:01.683Z,0.00
2018-12-05T04:54:01.681Z,0.00
2018-12-05T04:55:01.624Z,0.00
2018-12-05T04:56:01.587Z,0.00
2018-12-05T04:57:01.561Z,0.00
2018-12-05T04:58:01.519Z,0.00
2018-12-05T04:59:01.501Z,0.00
2018-12-05T05:00:01.468Z,0.00
2018-12-05T05:01:01.420Z,0.00
2018-12-05T05:02:01.399Z,0.00
2018-12-05T05:03:01.361Z,0.00
2018-12-05T05:04:01.342Z,0.00
2018-12-05T05:05:01.503Z,0.00
2018-12-05T05:06:01.270Z,0.00
2018-12-05T05:07:01.234Z,0.00
2018-12-05T05:08:01.202Z,0.00
2018-12-05T05:09:01.169Z,0.00
2018-12-05T05:10:01.133Z,0.00
2018-12-05T05:11:01.106Z,0.00
2018-12-05T05:12:01.093Z,0.00
2018-12-05T05:13:01.033Z,0.00
2018-12-05T05:14:01.050Z,0.00
2018-12-05T05:15:00.982Z,0.00
2018-12-05T05:16:00.935Z,0.00
2018-12-05T05:17:00.940Z,0.00
2018-12-05T05:18:00.883Z,0.00
2018-12-05T05:19:00.861Z,0.00
2018-12-05T05:20:00.815Z,0.00
2018-12-05T05:21:00.782Z,0.00
2018-12-05T05:22:00.854Z,0.00
2018-12-05T05:23:00.724Z,0.00
2018-12-05T05:24:00.748Z,0.00
2018-12-05T05:25:00.654Z,0.00
2018-12-05T05:26:00.627Z,0.00
2018-12-05T05:27:00.581Z,0.00
2018-12-05T05:28:00.551Z,0.00
2018-12-05T05:29:00.548Z,0.00
2018-12-05T05:30:00.492Z,0.00
2018-12-05T05:31:00.470Z,0.00
2018-12-05T05:33:00.430Z,0.00
2018-12-05T05:34:00.366Z,0.00
2018-12-05T05:35:00.326Z,0.00
2018-12-05T05:36:00.293Z,0.00
2018-12-05T05:37:00.256Z,0.00
2018-12-05T05:38:00.224Z,0.00
2018-12-05T05:39:00.193Z,0.00
2018-12-05T05:40:00.222Z,0.00
2018-12-05T05:41:00.131Z,0.00
2018-12-05T05:42:00.095Z,0.00
2018-12-05T05:43:00.073Z,0.00
2018-12-05T05:44:00.038Z,0.00
2018-12-05T05:44:59.999Z,0.00
2018-12-05T05:45:59.977Z,0.00
2018-12-05T05:46:59.949Z,0.00
2018-12-05T05:47:59.905Z,0.00
2018-12-05T05:48:59.870Z,0.00
2018-12-05T05:49:59.851Z,0.00
2018-12-05T05:50:59.805Z,0.00
2018-12-05T05:51:59.794Z,0.00
2018-12-05T05:52:59.769Z,0.00
2018-12-05T05:53:59.914Z,0.00
2018-12-05T05:54:59.677Z,0.00
2018-12-05T05:55:59.650Z,0.00
2018-12-05T05:56:59.627Z,0.00
2018-12-05T05:57:59.655Z,0.00
2018-12-05T05:58:59.559Z,0.00
2018-12-05T05:59:59.524Z,0.00
2018-12-05T06:00:59.488Z,0.00
2018-12-05T06:01:59.453Z,0.00
2018-12-05T06:02:59.423Z,0.00
2018-12-05T06:03:59.418Z,0.00
2018-12-05T06:04:59.398Z,0.00
2018-12-05T06:05:59.327Z,0.00
2018-12-05T06:06:59.305Z,0.00
2018-12-05T06:07:59.288Z,0.00
2018-12-05T06:08:59.224Z,0.00
2018-12-05T06:09:59.195Z,0.00
2018-12-05T06:10:59.176Z,0.00
2018-12-05T06:11:59.123Z,0.00
2018-12-05T06:12:59.098Z,0.00
2018-12-05T06:13:59.070Z,0.00
2018-12-05T06:14:59.040Z,0.00
2018-12-05T06:15:58.997Z,0.00
2018-12-05T06:16:58.972Z,0.00
2018-12-05T06:17:59.021Z,0.00
2018-12-05T06:18:58.906Z,0.00
2018-12-05T06:19:58.870Z,0.00
2018-12-05T06:20:58.849Z,0.00
2018-12-05T06:21:58.804Z,0.00
2018-12-05T06:22:58.775Z,0.00
2018-12-05T06:23:58.736Z,0.00
2018-12-05T06:24:58.853Z,0.00
2018-12-05T06:25:58.685Z,0.00
2018-12-05T06:26:58.653Z,0.00
2018-12-05T06:27:58.606Z,0.00
2018-12-05T06:28:58.578Z,0.00
2018-12-05T06:29:58.744Z,0.00
2018-12-05T06:30:58.552Z,0.00
2018-12-05T06:31:58.492Z,0.00
2018-12-05T06:32:58.542Z,0.00
2018-12-05T06:33:58.416Z,0.00
2018-12-05T06:34:58.381Z,0.00
2018-12-05T06:35:58.756Z,0.00
2018-12-05T06:36:58.313Z,0.00
2018-12-05T06:37:58.301Z,0.00
2018-12-05T06:38:59.466Z,0.00
2018-12-05T06:39:58.226Z,0.00
2018-12-05T06:40:58.203Z,0.00
2018-12-05T06:41:58.203Z,0.00
2018-12-05T06:42:58.126Z,0.00
2018-12-05T06:43:58.115Z,0.00
2018-12-05T06:44:58.063Z,0.00
2018-12-05T06:45:58.038Z,0.00
2018-12-05T06:46:58.001Z,0.00
2018-12-05T06:47:57.971Z,0.00
2018-12-05T06:48:57.929Z,0.00
2018-12-05T06:49:57.929Z,0.00
2018-12-05T06:50:57.872Z,0.00
2018-12-05T06:51:57.835Z,0.00
2018-12-05T06:52:57.808Z,0.00
2018-12-05T06:53:57.776Z,0.00
2018-12-05T06:54:57.749Z,0.00
2018-12-05T06:55:57.721Z,0.00
2018-12-05T06:56:57.671Z,0.00
2018-12-05T06:57:57.805Z,0.00
2018-12-05T06:58:57.624Z,0.00
2018-12-05T06:59:57.570Z,0.00
2018-12-05T07:00:57.574Z,0.00
2018-12-05T07:01:57.515Z,0.00
2018-12-05T07:02:57.517Z,0.00
2018-12-05T07:03:57.549Z,0.00
2018-12-05T07:04:57.410Z,0.00
2018-12-05T07:05:57.388Z,0.00
2018-12-05T07:06:57.353Z,0.00
2018-12-05T07:07:57.315Z,0.00
2018-12-05T07:08:57.288Z,0.00
2018-12-05T07:09:57.244Z,0.00
2018-12-05T07:10:57.233Z,0.00
2018-12-05T07:11:57.185Z,0.00
2018-12-05T07:12:57.148Z,0.00
2018-12-05T07:13:57.116Z,0.00
2018-12-05T07:14:57.082Z,0.00
2018-12-05T07:15:57.061Z,0.00
2018-12-05T07:16:57.041Z,0.00
2018-12-05T07:17:57.000Z,0.00
2018-12-05T07:18:56.956Z,0.00
2018-12-05T07:19:56.929Z,0.00
2018-12-05T07:20:56.909Z,0.00
2018-12-05T07:21:56.872Z,0.00
2018-12-05T07:22:56.819Z,0.00
2018-12-05T07:23:56.795Z,0.00
2018-12-05T07:24:56.760Z,0.00
2018-12-05T07:25:56.807Z,0.00
2018-12-05T07:26:56.698Z,0.00
2018-12-05T07:27:56.670Z,0.00
2018-12-05T07:28:56.646Z,0.00
2018-12-05T07:29:56.808Z,0.00
2018-12-05T07:30:56.571Z,0.00
2018-12-05T07:31:56.530Z,0.00
2018-12-05T07:32:56.501Z,0.00
2018-12-05T07:33:56.467Z,0.00
2018-12-05T07:34:56.429Z,0.00
2018-12-05T07:35:56.406Z,0.00
2018-12-05T07:36:56.397Z,0.00
2018-12-05T07:37:56.342Z,0.00
2018-12-05T07:38:56.312Z,0.00
2018-12-05T07:39:56.277Z,0.00
2018-12-05T07:40:56.244Z,0.00
2018-12-05T07:41:56.208Z,0.00
2018-12-05T07:42:56.193Z,0.00
2018-12-05T07:43:56.136Z,0.00
2018-12-05T07:44:56.107Z,0.00
2018-12-05T07:45:56.073Z,0.00
2018-12-05T07:46:56.068Z,0.00
2018-12-05T07:47:56.014Z,0.00
2018-12-05T07:48:55.985Z,0.00
2018-12-05T07:49:55.950Z,0.00
2018-12-05T07:50:55.922Z,0.00
2018-12-05T07:51:55.885Z,0.00
2018-12-05T07:52:55.854Z,0.00
2018-12-05T07:53:55.814Z,0.00
2018-12-05T07:54:55.792Z,0.00
2018-12-05T07:55:55.905Z,0.00
2018-12-05T07:56:55.721Z,0.00
2018-12-05T07:57:55.715Z,0.00
2018-12-05T07:58:55.668Z,0.00
2018-12-05T07:59:55.759Z,0.00
2018-12-05T08:00:55.585Z,0.00
2018-12-05T08:01:55.906Z,0.00
2018-12-05T08:02:55.523Z,0.00
2018-12-05T08:03:55.490Z,0.00
2018-12-05T08:04:55.459Z,0.00
2018-12-05T08:05:55.422Z,0.00
2018-12-05T08:06:55.402Z,0.00
2018-12-05T08:07:55.370Z,0.00
2018-12-05T08:08:55.324Z,0.00
2018-12-05T08:09:55.292Z,0.00
2018-12-05T08:10:55.262Z,0.00
2018-12-05T08:11:55.232Z,0.00
2018-12-05T08:12:55.203Z,0.00
2018-12-05T08:14:55.138Z,0.00
2018-12-05T08:15:55.132Z,0.00
2018-12-05T08:16:55.066Z,0.00
2018-12-05T08:17:55.040Z,0.00
2018-12-05T08:18:55.022Z,0.00
2018-12-05T08:19:54.979Z,0.00
2018-12-05T08:20:54.933Z,0.00
2018-12-05T08:21:54.911Z,0.00
2018-12-05T08:22:54.885Z,0.00
2018-12-05T08:23:54.846Z,0.00
2018-12-05T08:24:54.804Z,0.00
2018-12-05T08:25:54.766Z,0.00
2018-12-05T08:26:54.737Z,0.00
2018-12-05T08:27:54.719Z,0.00
2018-12-05T08:28:54.875Z,0.00
2018-12-05T08:29:54.650Z,0.00
2018-12-05T08:30:54.622Z,0.00
2018-12-05T08:31:54.599Z,0.00
2018-12-05T08:32:54.543Z,0.00
2018-12-05T08:33:54.524Z,0.00
2018-12-05T08:34:54.825Z,0.00
2018-12-05T08:35:54.453Z,0.00
2018-12-05T08:36:54.490Z,0.00
2018-12-05T08:37:54.376Z,0.00
2018-12-05T08:38:54.385Z,0.00
2018-12-05T08:39:54.326Z,5.63
2018-12-05T08:40:54.294Z,5.63
2018-12-05T08:41:54.267Z,5.63
2018-12-05T08:42:54.217Z,5.63
2018-12-05T08:43:54.191Z,5.63
2018-12-05T08:44:54.165Z,5.63
2018-12-05T08:45:54.121Z,5.63
2018-12-05T08:46:54.113Z,11.25
2018-12-05T08:47:54.059Z,11.25
2018-12-05T08:48:54.128Z,11.25
2018-12-05T08:49:53.998Z,11.25
2018-12-05T08:50:53.961Z,11.25
2018-12-05T08:51:53.928Z,11.25
2018-12-05T08:52:53.887Z,16.88
2018-12-05T08:53:53.894Z,16.88
2018-12-05T08:54:53.839Z,16.88
2018-12-05T08:55:53.803Z,16.88
2018-12-05T08:56:53.761Z,22.50
2018-12-05T08:57:53.727Z,22.50
2018-12-05T08:58:53.698Z,22.50
2018-12-05T08:59:53.692Z,28.13
2018-12-05T09:00:53.627Z,28.13
2018-12-05T09:01:53.804Z,28.13
2018-12-05T09:02:53.597Z,28.13
2018-12-05T09:03:53.571Z,28.13
2018-12-05T09:04:53.500Z,28.13
2018-12-05T09:05:53.487Z,28.13
2018-12-05T09:06:53.436Z,22.50
2018-12-05T09:07:53.760Z,22.50
2018-12-05T09:08:53.379Z,22.50
2018-12-05T09:09:53.333Z,22.50
2018-12-05T09:10:53.318Z,22.50
2018-12-05T09:11:53.277Z,22.50
2018-12-05T09:12:53.246Z,22.50
2018-12-05T09:13:53.205Z,22.50
2018-12-05T09:14:53.169Z,22.50
2018-12-05T09:15:53.150Z,22.50
2018-12-05T09:16:53.112Z,22.50
2018-12-05T09:18:53.047Z,22.50
2018-12-05T09:19:53.012Z,22.50
2018-12-05T09:20:52.976Z,22.50
2018-12-05T09:21:52.968Z,22.50
2018-12-05T09:22:52.925Z,22.50
2018-12-05T09:23:52.919Z,22.50
2018-12-05T09:24:52.843Z,22.50
2018-12-05T09:25:52.843Z,28.13
2018-12-05T09:26:52.793Z,28.13
2018-12-05T09:27:52.755Z,28.13
2018-12-05T09:28:57.204Z,28.13
2018-12-05T09:29:52.686Z,28.13
2018-12-05T09:30:52.656Z,28.13
2018-12-05T09:31:52.617Z,28.13
2018-12-05T09:32:52.594Z,33.75
2018-12-05T09:33:52.562Z,33.75
2018-12-05T09:34:52.675Z,33.75
2018-12-05T09:35:52.493Z,33.75
2018-12-05T09:36:52.502Z,33.75
2018-12-05T09:37:52.451Z,33.75
2018-12-05T09:38:52.403Z,33.75
2018-12-05T09:39:52.364Z,39.38
2018-12-05T09:40:52.326Z,39.38
2018-12-05T09:41:52.293Z,45.00
2018-12-05T09:42:52.269Z,45.00
2018-12-05T09:43:52.223Z,61.88
2018-12-05T09:44:52.194Z,67.50
2018-12-05T09:45:52.165Z,67.50
2018-12-05T09:46:52.129Z,73.13
2018-12-05T09:47:52.109Z,73.13
2018-12-05T09:48:52.075Z,73.13
2018-12-05T09:49:52.247Z,73.13
2018-12-05T09:50:52.081Z,73.13
2018-12-05T09:51:51.970Z,78.75
2018-12-05T09:52:51.961Z,78.75
2018-12-05T09:53:51.903Z,78.75
2018-12-05T09:54:51.870Z,78.75
2018-12-05T09:55:51.847Z,78.75
2018-12-05T09:56:51.809Z,78.75
2018-12-05T09:57:51.773Z,78.75
2018-12-05T09:58:53.006Z,78.75
2018-12-05T09:59:51.714Z,78.75
2018-12-05T10:00:52.029Z,78.75
2018-12-05T10:01:51.661Z,78.75
2018-12-05T10:02:51.611Z,78.75
2018-12-05T10:03:51.587Z,78.75
2018-12-05T10:04:51.546Z,73.13
2018-12-05T10:05:51.516Z,73.13
2018-12-05T10:06:51.706Z,73.13
2018-12-05T10:07:51.455Z,67.50
2018-12-05T10:08:51.422Z,67.50
2018-12-05T10:09:51.397Z,67.50
2018-12-05T10:10:51.356Z,67.50
2018-12-05T10:11:51.339Z,67.50
2018-12-05T10:12:51.340Z,67.50
2018-12-05T10:13:51.262Z,67.50
2018-12-05T10:14:51.230Z,67.50
2018-12-05T10:15:51.198Z,67.50
2018-12-05T10:16:51.175Z,67.50
2018-12-05T10:17:51.141Z,73.13
2018-12-05T10:18:51.117Z,84.38
2018-12-05T10:19:51.088Z,90.00
2018-12-05T10:20:56.012Z,95.63
2018-12-05T10:21:51.018Z,123.75
2018-12-05T10:22:50.970Z,146.25
2018-12-05T10:23:50.939Z,135.00
2018-12-05T10:24:50.924Z,129.38
2018-12-05T10:25:50.948Z,123.75
2018-12-05T10:26:50.838Z,129.38
2018-12-05T10:27:50.814Z,157.50
2018-12-05T10:28:50.790Z,157.50
2018-12-05T10:29:50.743Z,163.13
2018-12-05T10:30:50.715Z,174.38
2018-12-05T10:31:50.679Z,191.25
2018-12-05T10:32:50.658Z,196.88
2018-12-05T10:33:50.616Z,185.63
2018-12-05T10:34:50.611Z,185.63
2018-12-05T10:35:50.567Z,196.88
2018-12-05T10:36:50.532Z,202.50
2018-12-05T10:37:50.537Z,202.50
2018-12-05T10:38:50.461Z,236.25
2018-12-05T10:39:50.423Z,247.50
2018-12-05T10:40:50.409Z,230.63
2018-12-05T10:41:50.363Z,230.63
2018-12-05T10:43:50.293Z,264.38
2018-12-05T10:44:50.270Z,247.50
2018-12-05T10:45:50.248Z,213.75
2018-12-05T10:46:50.199Z,196.88
2018-12-05T10:47:50.231Z,219.38
2018-12-05T10:48:50.140Z,253.13
2018-12-05T10:49:50.108Z,264.38
2018-12-05T10:50:50.086Z,247.50
2018-12-05T10:51:50.045Z,236.25
2018-12-05T10:52:50.033Z,230.63
2018-12-05T10:53:49.977Z,208.13
2018-12-05T10:54:49.990Z,191.25
2018-12-05T10:55:49.917Z,196.88
2018-12-05T10:56:49.897Z,208.13
2018-12-05T10:57:49.851Z,219.38
2018-12-05T10:58:49.827Z,225.00
2018-12-05T10:59:49.788Z,219.38
2018-12-05T11:00:49.771Z,219.38
2018-12-05T11:01:49.736Z,225.00
2018-12-05T11:02:49.697Z,236.25
2018-12-05T11:03:49.683Z,253.13
2018-12-05T11:04:49.635Z,281.25
2018-12-05T11:05:49.614Z,303.75
2018-12-05T11:06:49.574Z,326.25
2018-12-05T11:07:49.551Z,376.88
2018-12-05T11:08:49.561Z,376.88
2018-12-05T11:09:49.481Z,343.13
2018-12-05T11:10:49.451Z,264.38
2018-12-05T11:11:49.437Z,247.50
2018-12-05T11:12:49.510Z,241.88
2018-12-05T11:13:49.360Z,230.63
2018-12-05T11:14:49.351Z,225.00
2018-12-05T11:15:49.289Z,241.88
2018-12-05T11:16:49.321Z,264.38
2018-12-05T11:17:49.226Z,298.13
2018-12-05T11:18:49.203Z,309.38
2018-12-05T11:19:49.165Z,320.63
2018-12-05T11:20:49.150Z,331.88
2018-12-05T11:21:49.859Z,315.00
2018-12-05T11:22:49.080Z,326.25
2018-12-05T11:23:49.064Z,371.25
2018-12-05T11:24:49.020Z,405.00
2018-12-05T11:25:48.999Z,393.75
2018-12-05T11:26:48.948Z,399.38
2018-12-05T11:27:48.942Z,399.38
2018-12-05T11:28:48.895Z,388.13
2018-12-05T11:29:48.875Z,371.25
2018-12-05T11:30:48.825Z,360.00
2018-12-05T11:31:48.808Z,365.63
2018-12-05T11:32:48.772Z,360.00
2018-12-05T11:33:48.736Z,326.25
2018-12-05T11:34:49.109Z,298.13
2018-12-05T11:35:48.688Z,281.25
2018-12-05T11:36:48.677Z,264.38
2018-12-05T11:37:48.624Z,258.75
2018-12-05T11:38:48.586Z,253.13
2018-12-05T11:39:48.550Z,253.13
2018-12-05T11:40:48.573Z,247.50
2018-12-05T11:41:48.505Z,219.38
2018-12-05T11:42:48.463Z,196.88
2018-12-05T11:43:48.518Z,180.00
2018-12-05T11:44:48.410Z,151.88
2018-12-05T11:45:48.441Z,146.25
2018-12-05T11:46:48.598Z,146.25
2018-12-05T11:47:48.329Z,151.88
2018-12-05T11:48:48.273Z,163.13
2018-12-05T11:49:48.259Z,174.38
2018-12-05T11:50:48.213Z,180.00
2018-12-05T11:51:48.188Z,185.63
2018-12-05T11:52:48.179Z,191.25
2018-12-05T11:53:48.136Z,196.88
2018-12-05T11:54:48.086Z,213.75
2018-12-05T11:55:48.070Z,236.25
2018-12-05T11:57:48.026Z,275.63
2018-12-05T11:58:48.011Z,281.25
2018-12-05T11:59:47.942Z,281.25
2018-12-05T12:00:47.912Z,275.63
2018-12-05T12:01:47.984Z,286.88
2018-12-05T12:02:47.859Z,303.75
2018-12-05T12:03:47.820Z,309.38
2018-12-05T12:04:47.788Z,298.13
2018-12-05T12:05:47.790Z,298.13
2018-12-05T12:06:47.990Z,309.38
2018-12-05T12:07:47.719Z,343.13
2018-12-05T12:08:47.667Z,371.25
2018-12-05T12:09:47.645Z,399.38
2018-12-05T12:10:47.637Z,399.38
2018-12-05T12:11:47.570Z,376.88
2018-12-05T12:12:47.895Z,365.63
2018-12-05T12:13:47.594Z,371.25
2018-12-05T12:14:47.494Z,382.50
2018-12-05T12:15:47.455Z,393.75
2018-12-05T12:16:47.508Z,405.00
2018-12-05T12:17:47.675Z,410.63
2018-12-05T12:18:47.372Z,405.00
2018-12-05T12:19:47.369Z,399.38
2018-12-05T12:20:47.308Z,399.38
2018-12-05T12:21:47.275Z,405.00
2018-12-05T12:22:47.242Z,405.00
2018-12-05T12:23:47.248Z,416.25
2018-12-05T12:24:47.177Z,410.63
2018-12-05T12:25:47.158Z,405.00
2018-12-05T12:26:47.142Z,399.38
2018-12-05T12:27:47.094Z,376.88
2018-12-05T12:28:47.054Z,376.88
2018-12-05T12:29:47.093Z,360.00
2018-12-05T12:30:47.023Z,337.50
2018-12-05T12:31:47.053Z,320.63
2018-12-05T12:32:46.946Z,326.25
2018-12-05T12:33:46.937Z,326.25
2018-12-05T12:34:46.889Z,320.63
2018-12-05T12:35:46.861Z,303.75
2018-12-05T12:36:46.864Z,292.50
2018-12-05T12:37:46.837Z,292.50
2018-12-05T12:38:46.829Z,264.38
2018-12-05T12:39:46.780Z,230.63
2018-12-05T12:40:46.742Z,247.50
2018-12-05T12:41:46.676Z,247.50
2018-12-05T12:42:46.653Z,247.50
2018-12-05T12:43:46.704Z,258.75
2018-12-05T12:44:46.605Z,275.63
2018-12-05T12:46:46.557Z,298.13
2018-12-05T12:47:46.522Z,298.13
2018-12-05T12:48:46.457Z,292.50
2018-12-05T12:49:46.443Z,286.88
2018-12-05T12:50:46.410Z,264.38
2018-12-05T12:51:46.368Z,253.13
2018-12-05T12:52:46.350Z,241.88
2018-12-05T12:53:46.314Z,247.50
2018-12-05T12:54:46.278Z,253.13
2018-12-05T12:55:46.258Z,253.13
2018-12-05T12:56:46.232Z,258.75
2018-12-05T12:57:46.194Z,264.38
2018-12-05T12:58:46.157Z,275.63
2018-12-05T12:59:46.187Z,292.50
2018-12-05T13:00:46.100Z,315.00
2018-12-05T13:01:46.078Z,337.50
2018-12-05T13:02:46.042Z,348.75
2018-12-05T13:03:46.016Z,348.75
2018-12-05T13:04:45.995Z,360.00
2018-12-05T13:05:46.328Z,371.25
2018-12-05T13:06:46.122Z,388.13
2018-12-05T13:07:45.899Z,393.75
2018-12-05T13:08:45.866Z,399.38
2018-12-05T13:09:45.837Z,405.00
2018-12-05T13:10:45.831Z,410.63
2018-12-05T13:11:45.798Z,410.63
2018-12-05T13:12:45.763Z,410.63